• Join FlightAware (Why Join?)
  • Login
  • US Flag 
04:50PM EDT


 

Airport Tracker/Info


-or-


 

Live Flight TrackerFlight Track Log ✈ N76503 ✈ 01-May-2012 ✈ KIAH - KDEN

Flight Track Log - Related Links

Times and Time Zones

All times are in EDT time to prevent confusion due to time zone crossing. See the N76503 flight status page for this flight to view local times or setup timezone preferences in your user account.

Time Position Orientation Groundspeed Altitude Reporting Facility
EDT Latitude Longitude Course Direction KTS MPH feet Rate Location/Type
08:56PM 29.9780 -95.2976 75° East 165 190 800  Level FlightAware ADS-B
08:56PM 29.9786 -95.2950 65° Northeast 164 189 1,000 2,220 Climbing FlightAware ADS-B
08:56PM 29.9800 -95.2915 52° Northeast 170 196 1,100 1,320 Climbing FlightAware ADS-B
08:56PM 29.9821 -95.2884 42° Northeast 181 208 1,200 1,680 Climbing FlightAware ADS-B
08:56PM 29.9844 -95.2860 28° Northeast 187 215 1,300 1,320 Climbing FlightAware ADS-B
08:56PM 29.9885 -95.2835 16° North 197 227 1,400 1,380 Climbing FlightAware ADS-B
08:56PM 29.9951 -95.2813 North 212 244 1,600 1,620 Climbing FlightAware ADS-B
08:56PM 29.9991 -95.2810 357° North 219 252 1,700 1,680 Climbing FlightAware ADS-B
08:56PM 30.0027 -95.2812 352° North 224 258 1,800 2,220 Climbing FlightAware ADS-B
08:56PM 30.0077 -95.2820 348° North 231 266 2,000 1,980 Climbing FlightAware ADS-B
08:57PM 30.0121 -95.2831 346° North 235 270 2,100 2,520 Climbing FlightAware ADS-B
08:57PM 30.0153 -95.2840 342° North 238 274 2,300 3,300 Climbing FlightAware ADS-B
08:57PM 30.0328 -95.2907 343° North 240 276 3,200 2,760 Climbing FlightAware ADS-B
08:57PM 30.0496 -95.2967 343° North 252 290 3,800 1,740 Climbing FlightAware ADS-B
08:57PM 30.0676 -95.3029 344° North 270 311 4,100 540 Climbing FlightAware ADS-B
08:58PM 30.0863 -95.3093 344° North 278 320 4,100  Level FlightAware ADS-B
08:58PM 30.1053 -95.3156 344° North 282 325 4,100 540 Level FlightAware ADS-B
08:58PM 30.1277 -95.3229 343° North 284 327 4,400 1,140 Climbing FlightAware ADS-B
08:58PM 30.1316 -95.3243 339° North 285 328 4,500 3,000 Climbing FlightAware ADS-B
08:58PM 30.1355 -95.3260 334° Northwest 285 328 4,700 2,520 Climbing FlightAware ADS-B
08:58PM 30.1404 -95.3288 329° Northwest 286 329 4,800 2,220 Climbing FlightAware ADS-B
08:58PM 30.1448 -95.3319 325° Northwest 286 329 5,000 3,420 Climbing FlightAware ADS-B
08:59PM 30.1617 -95.3456 325° Northwest 289 333 5,900 3,480 Climbing FlightAware ADS-B
08:59PM 30.1788 -95.3597 325° Northwest 294 338 6,800 3,360 Climbing FlightAware ADS-B
08:59PM 30.1969 -95.3743 325° Northwest 296 341 7,700 3,240 Climbing FlightAware ADS-B
08:59PM 30.2138 -95.3881 325° Northwest 299 344 8,500 3,240 Climbing FlightAware ADS-B
09:00PM 30.2317 -95.4028 325° Northwest 298 343 9,400 3,000 Climbing FlightAware ADS-B
09:00PM 30.2663 -95.4312 325° Northwest 314 361 10,800 1,980 Climbing FlightAware ADS-B
09:01PM 30.3063 -95.4642 325° Northwest 352 405 11,500 2,280 Climbing FlightAware ADS-B
09:01PM 30.3482 -95.4983 325° Northwest 354 407 13,200 3,240 Climbing FlightAware ADS-B
09:02PM 30.3901 -95.5327 325° Northwest 356 410 14,900 3,240 Climbing FlightAware ADS-B
09:02PM 30.4339 -95.5688 325° Northwest 352 405 16,700 3,180 Climbing FlightAware ADS-B
09:03PM 30.4752 -95.6028 325° Northwest 345 397 18,400 2,700 Climbing FlightAware ADS-B
09:03PM 30.5152 -95.6357 326° Northwest 355 409 19,500 2,100 Climbing FlightAware ADS-B
09:04PM 30.5316 -95.6483 332° Northwest 360 414 19,900 1,740 Climbing FlightAware ADS-B
09:04PM 30.5540 -95.6620 335° Northwest 368 423 20,300 1,860 Climbing FlightAware ADS-B
09:04PM 30.6018 -95.6875 335° Northwest 378 435 21,300 2,220 Climbing FlightAware ADS-B
09:05PM 30.6511 -95.7138 335° Northwest 379 436 22,600 2,220 Climbing FlightAware ADS-B
09:05PM 30.6995 -95.7398 335° Northwest 384 442 23,600 1,980 Climbing FlightAware ADS-B
09:06PM 30.7504 -95.7671 335° Northwest 389 448 24,700 1,920 Climbing FlightAware ADS-B
09:06PM 30.8007 -95.7941 335° Northwest 394 453 25,600 1,800 Climbing FlightAware ADS-B
09:07PM 30.8513 -95.8212 335° Northwest 401 461 26,500 1,620 Climbing FlightAware ADS-B
09:07PM 30.9031 -95.8490 335° Northwest 408 470 27,300 1,440 Climbing FlightAware ADS-B
09:08PM 30.9555 -95.8772 335° Northwest 413 475 28,000 1,500 Climbing FlightAware ADS-B
09:08PM 31.0085 -95.9057 335° Northwest 418 481 28,800 1,440 Climbing FlightAware ADS-B
09:09PM 31.0626 -95.9350 336° Northwest 425 489 29,500 1,320 Climbing FlightAware ADS-B
09:10PM 31.1363 -95.9727 342° North 434 499 30,400 1,260 Climbing FlightAware ADS-B
09:10PM 31.2012 -95.9980 342° North 441 507 31,100 1,200 Climbing FlightAware ADS-B
09:11PM 31.2613 -96.0213 342° North 446 513 31,700 1,140 Climbing FlightAware ADS-B
09:11PM 31.3242 -96.0457 342° North 449 517 32,300 1,320 Climbing FlightAware ADS-B
09:12PM 31.3857 -96.0696 342° North 448 516 33,100 1,440 Climbing FlightAware ADS-B
09:12PM 31.4462 -96.0932 342° North 448 516 33,800 1,320 Climbing FlightAware ADS-B
09:13PM 31.5057 -96.1163 342° North 444 511 34,500 1,440 Climbing FlightAware ADS-B
09:13PM 31.5668 -96.1401 342° North 440 506 35,300 1,320 Climbing FlightAware ADS-B
09:14PM 31.6369 -96.1675 342° North 439 505 36,000 1,080 Climbing FlightAware ADS-B
09:14PM 31.6954 -96.1905 342° North 438 504 36,500 840 Climbing FlightAware ADS-B
09:15PM 31.7805 -96.2239 342° North 439 505 37,100 780 Climbing FlightAware ADS-B
09:16PM 31.8478 -96.2503 342° North 439 505 37,600 780 Climbing FlightAware ADS-B
09:16PM 31.9131 -96.2759 342° North 439 505 38,000 300 Climbing FlightAware ADS-B
09:17PM 31.9880 -96.3054 341° North 439 505 38,000  Level FlightAware ADS-B
09:17PM 32.0491 -96.3296 343° North 437 503 38,000  Level FlightAware ADS-B
09:18PM 32.1211 -96.3561 342° North 431 496 38,000  Level Fort Worth Center
09:20PM 32.3456 -96.4437 342° North 437 503 38,000  Level FlightAware ADS-B
09:21PM 32.4689 -96.4900 342° North 425 489 38,000  Level Fort Worth Center
09:22PM 32.5839 -96.5333 342° North 425 489 38,000  Level Fort Worth Center
09:23PM 32.6992 -96.5767 341° North 425 489 38,000  Level Fort Worth Center
09:24PM 32.8122 -96.6225 343° North 425 489 38,000  Level Fort Worth Center
09:25PM 32.9292 -96.6661 343° North 425 489 38,000  Level Fort Worth Center
09:26PM 33.0464 -96.7094 342° North 425 489 38,000  Level Fort Worth Center
09:27PM 33.1636 -96.7558 341° North 430 495 38,000  Level Fort Worth Center
09:28PM 33.2786 -96.8022 342° North 435 501 38,000  Level Fort Worth Center
09:29PM 33.3936 -96.8461 342° North 435 501 38,000  Level Fort Worth Center
09:30PM 33.5128 -96.8928 342° North 435 501 38,000  Level Fort Worth Center
09:31PM 33.6256 -96.9369 342° North 435 501 38,000  Level Fort Worth Center
09:32PM 33.7428 -96.9839 341° North 430 495 38,000  Level Fort Worth Center
09:33PM 33.8450 -97.0258 342° North 437 503 38,000  Level Fort Worth Center
09:34PM 33.9642 -97.0728 342° North 442 509 38,000  Level Fort Worth Center
09:35PM 34.0833 -97.1200 339° North 442 509 38,000  Level Fort Worth Center
09:36PM 34.2022 -97.1750 317° Northwest 430 495 38,000  Level Fort Worth Center
09:37PM 34.2881 -97.2728 314° West 415 478 38,000  Level Fort Worth Center
09:38PM 34.3717 -97.3783 312° West 420 483 38,000  Level Fort Worth Center
09:39PM 34.4528 -97.4867 314° West 425 489 38,000  Level Fort Worth Center
09:40PM 34.5258 -97.5797 314° West 425 489 38,000  Level Fort Worth Center
09:41PM 34.6069 -97.6833 314° West 425 489 38,000  Level Fort Worth Center
09:42PM 34.6903 -97.7897 313° West 430 495 38,000  Level Fort Worth Center
09:43PM 34.7733 -97.8989 314° West 430 495 38,000  Level Fort Worth Center
09:44PM 34.8564 -98.0056 312° West 430 495 38,000  Level Fort Worth Center
09:45PM 34.9475 -98.1278 313° West 430 495 38,000  Level Fort Worth Center
09:46PM 35.0303 -98.2350 313° West 430 495 38,000  Level Fort Worth Center
09:47PM 35.1128 -98.3425 313° West 435 501 38,000  Level Fort Worth Center
09:48PM 35.1975 -98.4528 313° West 435 501 38,000  Level Fort Worth Center
09:50PM 35.3739 -98.6836 313° West 432 497 38,000  Level Kansas City Center
09:51PM 35.4556 -98.7922 313° West 432 497 38,000  Level Kansas City Center
09:52PM 35.5414 -98.9042 311° West 432 497 38,000  Level Kansas City Center
09:53PM 35.6206 -99.0158 312° West 432 497 38,000  Level Kansas City Center
09:54PM 35.7039 -99.1281 312° West 432 497 38,000  Level Kansas City Center
09:55PM 35.7850 -99.2403 312° West 432 497 38,000  Level Kansas City Center
09:56PM 35.8661 -99.3528 313° West 432 497 38,000  Level Kansas City Center
09:57PM 35.9592 -99.4742 312° West 437 503 38,000  Level Kansas City Center
09:58PM 36.0400 -99.5844 312° West 432 497 38,000  Level Kansas City Center
09:59PM 36.1208 -99.6953 313° West 432 497 38,000  Level Kansas City Center
10:00PM 36.2017 -99.8036 311° West 432 497 38,000  Level Kansas City Center
10:01PM 36.2819 -99.9172 312° West 432 497 38,000  Level Kansas City Center
10:02PM 36.3644 -100.0311 312° West 432 497 38,000  Level Kansas City Center
10:03PM 36.4447 -100.1403 313° West 432 497 38,000  Level Kansas City Center
10:04PM 36.5272 -100.2522 312° West 432 497 38,000  Level Kansas City Center
10:05PM 36.6092 -100.3669 311° West 432 497 38,000  Level Kansas City Center
10:06PM 36.6869 -100.4792 312° West 432 497 38,000  Level Kansas City Center
10:07PM 36.7669 -100.5917 312° West 432 497 38,000  Level Kansas City Center
10:08PM 36.8486 -100.7047 311° West 432 497 38,000  Level Kansas City Center
10:09PM 36.9186 -100.8039 311° West 427 491 38,000  Level Kansas City Center
10:10PM 37.0058 -100.9281 311° West 427 491 38,000  Level Kansas City Center
10:11PM 37.0833 -101.0414 311° West 427 491 38,000  Level Kansas City Center
10:12PM 37.1625 -101.1550 312° West 433 498 38,000  Level Kansas City Center
10:13PM 37.2339 -101.2553 310° West 433 498 38,000  Level Kansas City Center
10:14PM 37.3092 -101.3664 312° West 433 498 38,000 -120 Level Kansas City Center
10:15PM 37.3939 -101.4864 311° West 433 498 37,800 -600 Descending Kansas City Center
10:16PM 37.4689 -101.5953 311° West 423 487 36,800 -900 Descending Kansas City Center
10:17PM 37.5358 -101.6933 309° West 411 473 36,000 -360 Descending Kansas City Center
10:19PM 37.6294 -101.8369 312° West 414 476 36,000  Level Denver Center
10:20PM 37.7067 -101.9447 314° West 414 476 36,000  Level Denver Center
10:21PM 37.8056 -102.0740 313° West 412 474 36,000  Level FlightAware ADS-B
10:21PM 37.8449 -102.1280 313° West 410 472 36,000  Level FlightAware ADS-B
10:22PM 37.8838 -102.1810 313° West 408 470 36,000  Level FlightAware ADS-B
10:22PM 37.9225 -102.2340 313° West 408 470 36,000  Level FlightAware ADS-B
10:23PM 37.9614 -102.2870 313° West 406 467 36,000  Level FlightAware ADS-B
10:23PM 38.0005 -102.3410 313° West 405 466 36,000  Level FlightAware ADS-B
10:24PM 38.0395 -102.3950 312° West 406 467 36,000  Level FlightAware ADS-B
10:24PM 38.0784 -102.4490 313° West 411 473 36,000  Level FlightAware ADS-B
10:25PM 38.1175 -102.5020 312° West 413 475 36,000  Level FlightAware ADS-B
10:25PM 38.1577 -102.5580 312° West 412 474 36,000  Level FlightAware ADS-B
10:26PM 38.1863 -102.5980 313° West 413 475 36,000  Level FlightAware ADS-B
10:26PM 38.2217 -102.6470 312° West 415 478 36,000  Level FlightAware ADS-B
10:26PM 38.2480 -102.6840 314° West 418 481 36,000  Level FlightAware ADS-B
10:27PM 38.2622 -102.7030 312° West 421 484 36,000  Level FlightAware ADS-B
10:27PM 38.3029 -102.7600 312° West 423 487 36,000  Level FlightAware ADS-B
10:28PM 38.3430 -102.8160 313° West 424 488 36,000  Level FlightAware ADS-B
10:28PM 38.3827 -102.8710 312° West 419 482 36,000  Level FlightAware ADS-B
10:29PM 38.4225 -102.9270 312° West 410 472 36,000  Level FlightAware ADS-B
10:29PM 38.4607 -102.9810 312° West 409 471 36,000  Level FlightAware ADS-B
10:30PM 38.4991 -103.0350 312° West 409 471 36,000  Level FlightAware ADS-B
10:30PM 38.5376 -103.0890 312° West 408 470 36,000 -540 Level FlightAware ADS-B
10:31PM 38.5755 -103.1420 312° West 400 460 35,500 -1,380 Descending FlightAware ADS-B
10:31PM 38.6131 -103.1950 312° West 392 451 34,600 -1,920 Descending FlightAware ADS-B
10:32PM 38.6494 -103.2470 312° West 384 442 33,600 -1,920 Descending FlightAware ADS-B
10:32PM 38.6848 -103.2970 312° West 377 434 32,700 -1,800 Descending FlightAware ADS-B
10:33PM 38.7198 -103.3470 312° West 372 428 31,800 -1,920 Descending FlightAware ADS-B
10:33PM 38.7546 -103.3960 312° West 364 419 30,800 -1,920 Descending FlightAware ADS-B
10:34PM 38.7884 -103.4450 312° West 358 412 29,900 -1,680 Descending FlightAware ADS-B
10:34PM 38.8217 -103.4920 312° West 353 406 29,100 -1,740 Descending FlightAware ADS-B
10:35PM 38.8543 -103.5380 312° West 349 402 28,200 -1,800 Descending FlightAware ADS-B
10:35PM 38.8865 -103.5840 312° West 346 398 27,300 -1,740 Descending FlightAware ADS-B
10:36PM 38.9183 -103.6300 312° West 339 390 26,500 -1,680 Descending FlightAware ADS-B
10:36PM 38.9497 -103.6750 312° West 334 384 25,600 -1,680 Descending FlightAware ADS-B
10:37PM 38.9804 -103.7190 312° West 326 375 24,800 -1,620 Descending FlightAware ADS-B
10:37PM 39.0104 -103.7620 311° West 319 367 24,000 -1,620 Descending FlightAware ADS-B
10:38PM 39.0397 -103.8050 312° West 313 360 23,200 -1,620 Descending FlightAware ADS-B
10:38PM 39.0692 -103.8470 312° West 307 353 22,400 -1,620 Descending FlightAware ADS-B
10:39PM 39.0976 -103.8880 312° West 302 348 21,600 -1,500 Descending FlightAware ADS-B
10:39PM 39.1255 -103.9280 311° West 295 339 20,900 -1,500 Descending FlightAware ADS-B
10:40PM 39.1529 -103.9680 311° West 293 337 20,100 -1,980 Descending FlightAware ADS-B
10:40PM 39.1809 -104.0090 312° West 308 354 18,900 -1,980 Descending FlightAware ADS-B
10:41PM 39.2091 -104.0500 312° West 307 353 18,100 -1,800 Descending FlightAware ADS-B
10:41PM 39.2379 -104.0910 311° West 314 361 17,100 -1,920 Descending FlightAware ADS-B
10:42PM 39.2574 -104.1200 317° Northwest 316 364 16,500 -1,920 Descending FlightAware ADS-B
10:42PM 39.2673 -104.1320 318° Northwest 316 364 16,200 -1,380 Descending FlightAware ADS-B
10:42PM 39.3002 -104.1700 319° Northwest 311 358 15,600 -1,200 Descending FlightAware ADS-B
10:43PM 39.3310 -104.2050 318° Northwest 305 351 15,000 -1,260 Descending FlightAware ADS-B
10:43PM 39.3412 -104.2170 310° West 303 349 14,800 -1,440 Descending FlightAware ADS-B
10:43PM 39.3451 -104.2230 303° West 299 344 14,700 -900 Descending FlightAware ADS-B
10:44PM 39.3670 -104.2670 301° West 287 330 14,300 -1,020 Descending FlightAware ADS-B
10:44PM 39.3877 -104.3110 302° West 283 326 13,700 -840 Descending FlightAware ADS-B
10:45PM 39.4079 -104.3530 300° West 265 305 13,500 -540 Descending FlightAware ADS-B
10:45PM 39.4187 -104.3770 301° West 257 296 13,300 -720 Descending FlightAware ADS-B
10:45PM 39.4346 -104.4110 301° West 244 281 13,000 -1,020 Descending FlightAware ADS-B
10:46PM 39.4435 -104.4300 302° West 243 280 12,600 -1,860 Descending FlightAware ADS-B
10:46PM 39.4559 -104.4560 302° West 245 282 11,900 -1,860 Descending FlightAware ADS-B
10:46PM 39.4684 -104.4820 301° West 248 285 11,300 -1,620 Descending FlightAware ADS-B
10:47PM 39.4866 -104.5220 299° West 252 290 10,500 -1,440 Descending FlightAware ADS-B
10:47PM 39.4929 -104.5370 301° West 250 288 10,300 -1,140 Descending FlightAware ADS-B
10:47PM 39.4995 -104.5510 309° West 249 287 10,100 -1,200 Descending FlightAware ADS-B
10:47PM 39.5020 -104.5550 317° Northwest 249 287 10,000 -1,200 Descending FlightAware ADS-B
10:47PM 39.5070 -104.5610 324° Northwest 248 285 9,900 -1,140 Descending FlightAware ADS-B
10:47PM 39.5112 -104.5650 329° Northwest 245 282 9,800 -1,620 Descending FlightAware ADS-B
10:48PM 39.5254 -104.5760 328° Northwest 242 278 9,400 -1,620 Descending FlightAware ADS-B
10:48PM 39.5304 -104.5800 331° Northwest 242 278 9,300 -900 Descending FlightAware ADS-B
10:48PM 39.5455 -104.5910 328° Northwest 235 270 9,100 -540 Descending FlightAware ADS-B
10:48PM 39.5517 -104.5960 329° Northwest 228 262 9,100 300 Level FlightAware ADS-B
10:48PM 39.5607 -104.6030 329° Northwest 218 251 9,200  Climbing FlightAware ADS-B
10:48PM 39.5734 -104.6130 328° Northwest 208 239 9,100 -240 Descending FlightAware ADS-B
10:49PM 39.5858 -104.6230 329° Northwest 204 235 9,100 180 Level FlightAware ADS-B
10:49PM 39.5988 -104.6330 327° Northwest 201 231 9,200 180 Climbing FlightAware ADS-B
10:49PM 39.6107 -104.6430 326° Northwest 202 232 9,200 -240 Level FlightAware ADS-B
10:49PM 39.6187 -104.6500 334° Northwest 201 231 9,100 -420 Descending FlightAware ADS-B
10:50PM 39.6235 -104.6530 334° Northwest 198 228 9,100 480 Level FlightAware ADS-B
10:50PM 39.6282 -104.6560 344° North 196 226 9,200  Climbing FlightAware ADS-B
10:50PM 39.6362 -104.6590 349° North 196 226 9,100 -600 Descending FlightAware ADS-B
10:50PM 39.6485 -104.6620 360° North 199 229 9,000 -960 Descending FlightAware ADS-B
10:50PM 39.6595 -104.6620 360° North 200 230 8,700 -1,260 Descending FlightAware ADS-B
10:50PM 39.6749 -104.6620 360° North 200 230 8,400 -1,080 Descending FlightAware ADS-B
10:51PM 39.6915 -104.6620 360° North 196 226 8,100 -840 Descending FlightAware ADS-B
10:51PM 39.6951 -104.6620 360° North 194 223 8,100 -1,020 Level FlightAware ADS-B
10:51PM 39.7128 -104.6620 360° North 191 220 7,700 -1,080 Descending FlightAware ADS-B
10:51PM 39.7258 -104.6620 360° North 186 214 7,500 -1,020 Descending FlightAware ADS-B
10:52PM 39.7391 -104.6620 North 183 211 7,200 -900 Descending FlightAware ADS-B
10:52PM 39.7598 -104.6610 360° North 179 206 6,900 -900 Descending FlightAware ADS-B
10:52PM 39.7659 -104.6610 360° North 161 185 6,700 -1,080 Descending FlightAware ADS-B
10:53PM 39.7773 -104.6610 360° North 153 176 6,500 -780 Descending FlightAware ADS-B
10:53PM 39.7878 -104.6610 360° North 148 170 6,300 -720 Descending FlightAware ADS-B
10:53PM 39.7946 -104.6610 360° North 144 166 6,200 -720 Descending FlightAware ADS-B
10:53PM 39.7997 -104.6610 360° North 143 165 6,100 -720 Descending FlightAware ADS-B
10:53PM 39.8061 -104.6610 360° North 143 165 6,000 -660 Descending FlightAware ADS-B
10:53PM 39.8122 -104.6610 360° North 145 167 5,900 -660 Descending FlightAware ADS-B
10:54PM 39.8186 -104.6610 360° North 149 171 5,800 -840 Descending FlightAware ADS-B
10:54PM 39.8224 -104.6610 North 151 174 5,700 -840 Descending FlightAware ADS-B
10:54PM 39.8351 -104.6600 North 156 180 5,500 -720 Descending FlightAware ADS-B